sensor_id;sensor_type;location;lat;lon;timestamp;P1;durP1;ratioP1;P2;durP2;ratioP2
68633;SDS011;55625;47.072;22.192;2023-02-28T00:01:31;7.28;;;2.53;;
68633;SDS011;55625;47.072;22.192;2023-02-28T00:03:58;7.50;;;2.55;;
68633;SDS011;55625;47.072;22.192;2023-02-28T00:06:25;4.97;;;2.03;;
68633;SDS011;55625;47.072;22.192;2023-02-28T00:08:51;1.85;;;1.15;;
68633;SDS011;55625;47.072;22.192;2023-02-28T00:11:17;2.33;;;1.73;;
68633;SDS011;55625;47.072;22.192;2023-02-28T00:13:44;2.83;;;1.90;;
68633;SDS011;55625;47.072;22.192;2023-02-28T00:16:14;4.13;;;2.78;;
68633;SDS011;55625;47.072;22.192;2023-02-28T00:18:46;2.63;;;1.20;;
68633;SDS011;55625;47.072;22.192;2023-02-28T00:21:13;3.43;;;2.73;;
68633;SDS011;55625;47.072;22.192;2023-02-28T00:23:40;3.13;;;1.85;;
68633;SDS011;55625;47.072;22.192;2023-02-28T00:26:06;2.78;;;1.48;;
68633;SDS011;55625;47.072;22.192;2023-02-28T00:28:37;1.60;;;1.13;;
68633;SDS011;55625;47.072;22.192;2023-02-28T00:31:03;3.33;;;1.97;;
68633;SDS011;55625;47.072;22.192;2023-02-28T00:33:29;3.95;;;2.38;;
68633;SDS011;55625;47.072;22.192;2023-02-28T00:36:03;3.55;;;2.05;;
68633;SDS011;55625;47.072;22.192;2023-02-28T00:38:34;4.80;;;2.03;;
68633;SDS011;55625;47.072;22.192;2023-02-28T00:41:01;5.20;;;2.67;;
68633;SDS011;55625;47.072;22.192;2023-02-28T00:43:31;2.53;;;1.88;;
68633;SDS011;55625;47.072;22.192;2023-02-28T00:46:02;3.97;;;1.85;;
68633;SDS011;55625;47.072;22.192;2023-02-28T00:48:29;3.20;;;1.27;;
68633;SDS011;55625;47.072;22.192;2023-02-28T00:50:55;3.03;;;2.53;;
68633;SDS011;55625;47.072;22.192;2023-02-28T00:53:21;4.40;;;1.77;;
68633;SDS011;55625;47.072;22.192;2023-02-28T00:55:47;8.02;;;2.95;;
68633;SDS011;55625;47.072;22.192;2023-02-28T00:58:14;3.72;;;2.67;;
68633;SDS011;55625;47.072;22.192;2023-02-28T01:00:40;5.87;;;3.27;;
68633;SDS011;55625;47.072;22.192;2023-02-28T01:03:06;7.38;;;2.50;;
68633;SDS011;55625;47.072;22.192;2023-02-28T01:05:32;8.60;;;4.33;;
68633;SDS011;55625;47.072;22.192;2023-02-28T01:07:58;6.77;;;3.20;;
68633;SDS011;55625;47.072;22.192;2023-02-28T01:10:24;6.68;;;4.57;;
68633;SDS011;55625;47.072;22.192;2023-02-28T01:12:50;5.95;;;4.18;;
68633;SDS011;55625;47.072;22.192;2023-02-28T01:15:16;3.80;;;2.43;;
68633;SDS011;55625;47.072;22.192;2023-02-28T01:17:42;2.92;;;1.50;;
68633;SDS011;55625;47.072;22.192;2023-02-28T01:20:08;5.28;;;2.67;;
68633;SDS011;55625;47.072;22.192;2023-02-28T01:22:35;3.97;;;1.47;;
68633;SDS011;55625;47.072;22.192;2023-02-28T01:25:00;4.53;;;3.78;;
68633;SDS011;55625;47.072;22.192;2023-02-28T01:27:26;5.65;;;3.45;;
68633;SDS011;55625;47.072;22.192;2023-02-28T01:29:53;3.53;;;2.33;;
68633;SDS011;55625;47.072;22.192;2023-02-28T01:32:19;3.90;;;1.98;;
68633;SDS011;55625;47.072;22.192;2023-02-28T01:34:45;6.53;;;3.22;;
68633;SDS011;55625;47.072;22.192;2023-02-28T01:37:10;4.50;;;3.30;;
68633;SDS011;55625;47.072;22.192;2023-02-28T01:39:36;6.40;;;2.13;;
68633;SDS011;55625;47.072;22.192;2023-02-28T01:42:02;2.90;;;2.22;;
68633;SDS011;55625;47.072;22.192;2023-02-28T01:47:43;4.22;;;2.97;;
68633;SDS011;55625;47.072;22.192;2023-02-28T01:50:13;4.68;;;2.03;;
68633;SDS011;55625;47.072;22.192;2023-02-28T01:52:44;6.82;;;3.30;;
68633;SDS011;55625;47.072;22.192;2023-02-28T01:55:14;4.47;;;2.45;;
68633;SDS011;55625;47.072;22.192;2023-02-28T01:57:49;4.70;;;3.27;;
68633;SDS011;55625;47.072;22.192;2023-02-28T02:00:20;4.00;;;3.53;;
68633;SDS011;55625;47.072;22.192;2023-02-28T02:02:53;3.20;;;1.63;;
68633;SDS011;55625;47.072;22.192;2023-02-28T02:05:27;5.43;;;1.95;;
68633;SDS011;55625;47.072;22.192;2023-02-28T02:08:06;4.35;;;3.15;;
68633;SDS011;55625;47.072;22.192;2023-02-28T02:10:44;1.90;;;1.47;;
68633;SDS011;55625;47.072;22.192;2023-02-28T02:31:33;3.33;;;2.70;;
68633;SDS011;55625;47.072;22.192;2023-02-28T02:37:10;3.30;;;2.25;;
68633;SDS011;55625;47.072;22.192;2023-02-28T02:39:48;6.27;;;3.57;;
68633;SDS011;55625;47.072;22.192;2023-02-28T02:42:32;5.75;;;2.35;;
68633;SDS011;55625;47.072;22.192;2023-02-28T02:45:31;4.95;;;1.95;;
68633;SDS011;55625;47.072;22.192;2023-02-28T02:48:10;3.28;;;2.08;;
68633;SDS011;55625;47.072;22.192;2023-02-28T02:50:51;4.57;;;2.90;;
68633;SDS011;55625;47.072;22.192;2023-02-28T02:53:22;3.90;;;1.93;;
68633;SDS011;55625;47.072;22.192;2023-02-28T02:56:03;3.50;;;1.45;;
68633;SDS011;55625;47.072;22.192;2023-02-28T02:58:34;4.65;;;2.97;;
68633;SDS011;55625;47.072;22.192;2023-02-28T03:01:07;3.00;;;2.17;;
68633;SDS011;55625;47.072;22.192;2023-02-28T03:03:38;6.28;;;3.58;;
68633;SDS011;55625;47.072;22.192;2023-02-28T03:06:05;4.30;;;3.40;;
68633;SDS011;55625;47.072;22.192;2023-02-28T03:08:34;5.55;;;3.20;;
68633;SDS011;55625;47.072;22.192;2023-02-28T03:11:04;5.60;;;2.92;;
68633;SDS011;55625;47.072;22.192;2023-02-28T03:22:05;2.60;;;2.10;;
68633;SDS011;55625;47.072;22.192;2023-02-28T03:30:25;2.35;;;1.42;;
68633;SDS011;55625;47.072;22.192;2023-02-28T03:36:04;5.18;;;4.68;;
68633;SDS011;55625;47.072;22.192;2023-02-28T03:41:53;3.17;;;2.33;;
68633;SDS011;55625;47.072;22.192;2023-02-28T03:44:34;3.80;;;2.33;;
68633;SDS011;55625;47.072;22.192;2023-02-28T03:47:12;2.10;;;1.90;;
68633;SDS011;55625;47.072;22.192;2023-02-28T03:50:19;3.85;;;1.95;;
68633;SDS011;55625;47.072;22.192;2023-02-28T03:56:02;4.68;;;3.38;;
68633;SDS011;55625;47.072;22.192;2023-02-28T03:58:45;3.65;;;3.13;;
68633;SDS011;55625;47.072;22.192;2023-02-28T04:01:45;4.47;;;2.50;;
68633;SDS011;55625;47.072;22.192;2023-02-28T04:04:12;4.78;;;3.22;;
68633;SDS011;55625;47.072;22.192;2023-02-28T04:06:39;3.83;;;1.92;;
68633;SDS011;55625;47.072;22.192;2023-02-28T04:09:07;6.45;;;4.03;;
68633;SDS011;55625;47.072;22.192;2023-02-28T04:11:37;3.88;;;3.53;;
68633;SDS011;55625;47.072;22.192;2023-02-28T04:14:09;2.60;;;2.40;;
68633;SDS011;55625;47.072;22.192;2023-02-28T04:16:37;1.90;;;1.20;;
68633;SDS011;55625;47.072;22.192;2023-02-28T04:19:06;9.25;;;3.75;;
68633;SDS011;55625;47.072;22.192;2023-02-28T04:21:34;7.35;;;2.90;;
68633;SDS011;55625;47.072;22.192;2023-02-28T04:24:09;6.20;;;2.90;;
68633;SDS011;55625;47.072;22.192;2023-02-28T04:26:48;5.07;;;2.57;;
68633;SDS011;55625;47.072;22.192;2023-02-28T04:29:27;5.53;;;2.83;;
68633;SDS011;55625;47.072;22.192;2023-02-28T04:31:56;8.77;;;1.90;;
68633;SDS011;55625;47.072;22.192;2023-02-28T04:34:23;6.53;;;3.92;;
68633;SDS011;55625;47.072;22.192;2023-02-28T04:36:49;4.93;;;2.03;;
68633;SDS011;55625;47.072;22.192;2023-02-28T04:39:16;3.93;;;1.80;;
68633;SDS011;55625;47.072;22.192;2023-02-28T04:41:43;3.78;;;2.17;;
68633;SDS011;55625;47.072;22.192;2023-02-28T04:44:13;5.38;;;3.33;;
68633;SDS011;55625;47.072;22.192;2023-02-28T04:46:40;7.80;;;3.60;;
68633;SDS011;55625;47.072;22.192;2023-02-28T04:49:06;3.67;;;1.80;;
68633;SDS011;55625;47.072;22.192;2023-02-28T04:51:34;5.07;;;2.20;;
68633;SDS011;55625;47.072;22.192;2023-02-28T04:54:00;3.00;;;2.08;;
68633;SDS011;55625;47.072;22.192;2023-02-28T04:56:26;4.43;;;2.90;;
68633;SDS011;55625;47.072;22.192;2023-02-28T04:58:52;6.80;;;3.73;;
68633;SDS011;55625;47.072;22.192;2023-02-28T05:03:56;5.32;;;3.95;;
68633;SDS011;55625;47.072;22.192;2023-02-28T05:06:26;3.47;;;1.88;;
68633;SDS011;55625;47.072;22.192;2023-02-28T05:08:55;3.07;;;2.50;;
68633;SDS011;55625;47.072;22.192;2023-02-28T05:11:28;6.22;;;3.22;;
68633;SDS011;55625;47.072;22.192;2023-02-28T05:14:04;3.83;;;3.47;;
68633;SDS011;55625;47.072;22.192;2023-02-28T05:16:35;5.28;;;2.75;;
68633;SDS011;55625;47.072;22.192;2023-02-28T05:19:01;4.53;;;3.00;;
68633;SDS011;55625;47.072;22.192;2023-02-28T05:21:28;2.57;;;2.20;;
68633;SDS011;55625;47.072;22.192;2023-02-28T05:23:57;3.95;;;3.47;;
68633;SDS011;55625;47.072;22.192;2023-02-28T05:26:25;4.22;;;3.45;;
68633;SDS011;55625;47.072;22.192;2023-02-28T05:28:53;5.10;;;3.65;;
68633;SDS011;55625;47.072;22.192;2023-02-28T05:31:19;4.18;;;3.35;;
68633;SDS011;55625;47.072;22.192;2023-02-28T05:33:46;3.53;;;2.47;;
68633;SDS011;55625;47.072;22.192;2023-02-28T05:36:12;7.30;;;4.50;;
68633;SDS011;55625;47.072;22.192;2023-02-28T05:38:38;6.72;;;3.10;;
68633;SDS011;55625;47.072;22.192;2023-02-28T05:41:04;2.95;;;1.90;;
68633;SDS011;55625;47.072;22.192;2023-02-28T05:43:35;5.40;;;2.77;;
68633;SDS011;55625;47.072;22.192;2023-02-28T05:46:03;4.50;;;3.13;;
68633;SDS011;55625;47.072;22.192;2023-02-28T05:48:34;8.27;;;3.88;;
68633;SDS011;55625;47.072;22.192;2023-02-28T05:51:02;5.45;;;4.20;;
68633;SDS011;55625;47.072;22.192;2023-02-28T05:53:29;6.43;;;4.28;;
68633;SDS011;55625;47.072;22.192;2023-02-28T05:55:56;5.03;;;4.40;;
68633;SDS011;55625;47.072;22.192;2023-02-28T05:58:22;6.03;;;2.33;;
68633;SDS011;55625;47.072;22.192;2023-02-28T06:00:50;6.70;;;3.72;;
68633;SDS011;55625;47.072;22.192;2023-02-28T06:03:16;7.55;;;5.05;;
68633;SDS011;55625;47.072;22.192;2023-02-28T06:05:42;4.37;;;3.90;;
68633;SDS011;55625;47.072;22.192;2023-02-28T06:08:08;4.53;;;3.27;;
68633;SDS011;55625;47.072;22.192;2023-02-28T06:10:34;5.70;;;4.00;;
68633;SDS011;55625;47.072;22.192;2023-02-28T06:13:00;7.22;;;4.72;;
68633;SDS011;55625;47.072;22.192;2023-02-28T06:15:27;4.23;;;2.17;;
68633;SDS011;55625;47.072;22.192;2023-02-28T06:17:54;6.07;;;5.47;;
68633;SDS011;55625;47.072;22.192;2023-02-28T06:20:24;8.10;;;4.28;;
68633;SDS011;55625;47.072;22.192;2023-02-28T06:22:54;6.93;;;5.18;;
68633;SDS011;55625;47.072;22.192;2023-02-28T06:25:23;5.30;;;4.57;;
68633;SDS011;55625;47.072;22.192;2023-02-28T06:27:50;5.73;;;3.00;;
68633;SDS011;55625;47.072;22.192;2023-02-28T06:30:16;6.07;;;3.40;;
68633;SDS011;55625;47.072;22.192;2023-02-28T06:32:42;7.78;;;5.57;;
68633;SDS011;55625;47.072;22.192;2023-02-28T06:35:08;3.72;;;2.53;;
68633;SDS011;55625;47.072;22.192;2023-02-28T06:37:35;5.85;;;2.38;;
68633;SDS011;55625;47.072;22.192;2023-02-28T06:40:01;4.87;;;1.83;;
68633;SDS011;55625;47.072;22.192;2023-02-28T06:42:27;9.70;;;4.72;;
68633;SDS011;55625;47.072;22.192;2023-02-28T06:44:55;2.70;;;2.05;;
68633;SDS011;55625;47.072;22.192;2023-02-28T06:47:22;4.22;;;2.47;;
68633;SDS011;55625;47.072;22.192;2023-02-28T06:49:48;6.17;;;2.63;;
68633;SDS011;55625;47.072;22.192;2023-02-28T06:52:14;5.93;;;5.18;;
68633;SDS011;55625;47.072;22.192;2023-02-28T06:54:41;8.55;;;3.90;;
68633;SDS011;55625;47.072;22.192;2023-02-28T06:57:07;6.70;;;3.75;;
68633;SDS011;55625;47.072;22.192;2023-02-28T06:59:33;5.97;;;4.47;;
68633;SDS011;55625;47.072;22.192;2023-02-28T07:02:00;6.13;;;3.93;;
68633;SDS011;55625;47.072;22.192;2023-02-28T07:04:27;5.55;;;4.15;;
68633;SDS011;55625;47.072;22.192;2023-02-28T07:06:54;9.43;;;5.10;;
68633;SDS011;55625;47.072;22.192;2023-02-28T07:09:21;11.18;;;4.57;;
68633;SDS011;55625;47.072;22.192;2023-02-28T07:11:48;5.80;;;4.38;;
68633;SDS011;55625;47.072;22.192;2023-02-28T07:14:14;8.33;;;3.97;;
68633;SDS011;55625;47.072;22.192;2023-02-28T07:16:39;8.02;;;3.38;;
68633;SDS011;55625;47.072;22.192;2023-02-28T07:19:05;6.78;;;3.95;;
68633;SDS011;55625;47.072;22.192;2023-02-28T07:21:31;7.83;;;6.27;;
68633;SDS011;55625;47.072;22.192;2023-02-28T07:23:57;9.23;;;3.70;;
68633;SDS011;55625;47.072;22.192;2023-02-28T07:26:23;7.97;;;3.97;;
68633;SDS011;55625;47.072;22.192;2023-02-28T07:28:49;7.47;;;4.63;;
68633;SDS011;55625;47.072;22.192;2023-02-28T07:31:15;6.85;;;4.43;;
68633;SDS011;55625;47.072;22.192;2023-02-28T07:33:43;6.80;;;4.75;;
68633;SDS011;55625;47.072;22.192;2023-02-28T07:36:10;15.85;;;6.35;;
68633;SDS011;55625;47.072;22.192;2023-02-28T07:38:42;5.80;;;5.23;;
68633;SDS011;55625;47.072;22.192;2023-02-28T07:41:13;10.88;;;7.07;;
68633;SDS011;55625;47.072;22.192;2023-02-28T07:43:40;12.13;;;4.93;;
68633;SDS011;55625;47.072;22.192;2023-02-28T07:46:08;7.70;;;4.67;;
68633;SDS011;55625;47.072;22.192;2023-02-28T07:48:37;11.37;;;6.47;;
68633;SDS011;55625;47.072;22.192;2023-02-28T07:51:03;9.77;;;4.20;;
68633;SDS011;55625;47.072;22.192;2023-02-28T07:53:30;6.00;;;3.83;;
68633;SDS011;55625;47.072;22.192;2023-02-28T07:55:56;13.60;;;6.72;;
68633;SDS011;55625;47.072;22.192;2023-02-28T07:58:24;6.63;;;4.40;;
68633;SDS011;55625;47.072;22.192;2023-02-28T08:00:51;5.57;;;4.33;;
68633;SDS011;55625;47.072;22.192;2023-02-28T08:03:18;4.65;;;2.88;;
68633;SDS011;55625;47.072;22.192;2023-02-28T08:05:45;3.63;;;2.35;;
68633;SDS011;55625;47.072;22.192;2023-02-28T08:08:12;4.72;;;2.70;;
68633;SDS011;55625;47.072;22.192;2023-02-28T08:10:39;5.63;;;3.53;;
68633;SDS011;55625;47.072;22.192;2023-02-28T08:13:05;4.33;;;2.00;;
68633;SDS011;55625;47.072;22.192;2023-02-28T08:15:31;4.85;;;1.92;;
68633;SDS011;55625;47.072;22.192;2023-02-28T08:17:57;3.17;;;2.20;;
68633;SDS011;55625;47.072;22.192;2023-02-28T08:20:24;2.00;;;1.33;;
68633;SDS011;55625;47.072;22.192;2023-02-28T08:22:51;2.92;;;2.22;;
68633;SDS011;55625;47.072;22.192;2023-02-28T08:25:16;6.17;;;2.97;;
68633;SDS011;55625;47.072;22.192;2023-02-28T08:27:43;7.55;;;4.45;;
68633;SDS011;55625;47.072;22.192;2023-02-28T08:30:10;6.70;;;2.58;;
68633;SDS011;55625;47.072;22.192;2023-02-28T08:32:38;7.10;;;4.10;;
68633;SDS011;55625;47.072;22.192;2023-02-28T08:35:04;11.27;;;4.30;;
68633;SDS011;55625;47.072;22.192;2023-02-28T08:37:30;5.15;;;2.55;;
68633;SDS011;55625;47.072;22.192;2023-02-28T08:39:56;5.50;;;3.50;;
68633;SDS011;55625;47.072;22.192;2023-02-28T08:42:23;6.90;;;2.63;;
68633;SDS011;55625;47.072;22.192;2023-02-28T08:44:49;6.72;;;2.83;;
68633;SDS011;55625;47.072;22.192;2023-02-28T08:47:14;5.93;;;3.78;;
68633;SDS011;55625;47.072;22.192;2023-02-28T08:49:41;6.78;;;2.38;;
68633;SDS011;55625;47.072;22.192;2023-02-28T08:52:06;4.93;;;3.70;;
68633;SDS011;55625;47.072;22.192;2023-02-28T08:54:32;3.10;;;2.30;;
68633;SDS011;55625;47.072;22.192;2023-02-28T08:56:59;5.97;;;2.42;;
68633;SDS011;55625;47.072;22.192;2023-02-28T08:59:25;4.93;;;2.83;;
68633;SDS011;55625;47.072;22.192;2023-02-28T09:01:51;4.80;;;1.93;;
68633;SDS011;55625;47.072;22.192;2023-02-28T09:04:17;8.98;;;1.73;;
68633;SDS011;55625;47.072;22.192;2023-02-28T09:06:43;5.97;;;3.35;;
68633;SDS011;55625;47.072;22.192;2023-02-28T09:09:09;3.58;;;2.80;;
68633;SDS011;55625;47.072;22.192;2023-02-28T09:11:36;3.47;;;1.90;;
68633;SDS011;55625;47.072;22.192;2023-02-28T09:14:02;4.90;;;2.72;;
68633;SDS011;55625;47.072;22.192;2023-02-28T09:16:28;11.02;;;4.55;;
68633;SDS011;55625;47.072;22.192;2023-02-28T09:18:56;7.25;;;3.72;;
68633;SDS011;55625;47.072;22.192;2023-02-28T09:21:22;3.87;;;2.57;;
68633;SDS011;55625;47.072;22.192;2023-02-28T09:23:49;6.78;;;4.50;;
68633;SDS011;55625;47.072;22.192;2023-02-28T09:26:23;5.07;;;4.45;;
68633;SDS011;55625;47.072;22.192;2023-02-28T09:28:52;8.30;;;3.00;;
68633;SDS011;55625;47.072;22.192;2023-02-28T09:31:23;5.28;;;3.80;;
68633;SDS011;55625;47.072;22.192;2023-02-28T09:33:53;5.30;;;3.97;;
68633;SDS011;55625;47.072;22.192;2023-02-28T09:36:22;6.80;;;3.85;;
68633;SDS011;55625;47.072;22.192;2023-02-28T09:38:50;11.90;;;4.82;;
68633;SDS011;55625;47.072;22.192;2023-02-28T09:41:20;8.57;;;6.40;;
68633;SDS011;55625;47.072;22.192;2023-02-28T09:43:54;9.98;;;3.97;;
68633;SDS011;55625;47.072;22.192;2023-02-28T09:48:53;4.68;;;3.95;;
68633;SDS011;55625;47.072;22.192;2023-02-28T09:51:30;6.03;;;2.75;;
68633;SDS011;55625;47.072;22.192;2023-02-28T09:54:13;7.10;;;3.95;;
68633;SDS011;55625;47.072;22.192;2023-02-28T09:56:48;6.78;;;4.72;;
68633;SDS011;55625;47.072;22.192;2023-02-28T10:02:14;4.70;;;2.92;;
68633;SDS011;55625;47.072;22.192;2023-02-28T10:05:38;6.07;;;2.58;;
68633;SDS011;55625;47.072;22.192;2023-02-28T10:08:16;5.22;;;2.63;;
68633;SDS011;55625;47.072;22.192;2023-02-28T10:11:06;3.53;;;3.05;;
68633;SDS011;55625;47.072;22.192;2023-02-28T10:19:38;6.07;;;4.53;;
68633;SDS011;55625;47.072;22.192;2023-02-28T10:22:17;33.45;;;5.13;;
68633;SDS011;55625;47.072;22.192;2023-02-28T10:25:16;8.07;;;4.32;;
68633;SDS011;55625;47.072;22.192;2023-02-28T10:27:49;10.70;;;5.33;;
68633;SDS011;55625;47.072;22.192;2023-02-28T10:30:18;8.23;;;6.32;;
68633;SDS011;55625;47.072;22.192;2023-02-28T10:32:47;4.95;;;3.58;;
68633;SDS011;55625;47.072;22.192;2023-02-28T10:35:22;5.70;;;2.65;;
68633;SDS011;55625;47.072;22.192;2023-02-28T10:37:59;8.02;;;5.55;;
68633;SDS011;55625;47.072;22.192;2023-02-28T10:40:35;6.23;;;2.27;;
68633;SDS011;55625;47.072;22.192;2023-02-28T10:49:00;4.25;;;2.42;;
68633;SDS011;55625;47.072;22.192;2023-02-28T10:51:38;6.85;;;2.22;;
68633;SDS011;55625;47.072;22.192;2023-02-28T10:54:05;7.23;;;3.60;;
68633;SDS011;55625;47.072;22.192;2023-02-28T10:56:45;3.53;;;1.95;;
68633;SDS011;55625;47.072;22.192;2023-02-28T10:59:30;3.75;;;2.58;;
68633;SDS011;55625;47.072;22.192;2023-02-28T11:01:56;5.75;;;3.35;;
68633;SDS011;55625;47.072;22.192;2023-02-28T11:07:27;4.87;;;1.23;;
68633;SDS011;55625;47.072;22.192;2023-02-28T11:09:48;2.45;;;1.95;;
68633;SDS011;55625;47.072;22.192;2023-02-28T11:15:05;4.35;;;3.38;;
68633;SDS011;55625;47.072;22.192;2023-02-28T11:20:37;8.30;;;2.83;;
68633;SDS011;55625;47.072;22.192;2023-02-28T11:23:04;7.13;;;2.20;;
68633;SDS011;55625;47.072;22.192;2023-02-28T11:25:38;8.82;;;3.97;;
68633;SDS011;55625;47.072;22.192;2023-02-28T11:28:05;5.32;;;4.03;;
68633;SDS011;55625;47.072;22.192;2023-02-28T11:31:15;5.90;;;2.15;;
68633;SDS011;55625;47.072;22.192;2023-02-28T11:33:51;6.57;;;4.13;;
68633;SDS011;55625;47.072;22.192;2023-02-28T11:36:22;5.05;;;2.85;;
68633;SDS011;55625;47.072;22.192;2023-02-28T11:39:07;3.85;;;2.28;;
68633;SDS011;55625;47.072;22.192;2023-02-28T11:41:54;4.82;;;2.15;;
68633;SDS011;55625;47.072;22.192;2023-02-28T11:44:51;4.80;;;2.15;;
68633;SDS011;55625;47.072;22.192;2023-02-28T11:47:53;5.63;;;2.13;;
68633;SDS011;55625;47.072;22.192;2023-02-28T11:53:30;4.57;;;2.78;;
68633;SDS011;55625;47.072;22.192;2023-02-28T12:14:18;6.53;;;3.58;;
68633;SDS011;55625;47.072;22.192;2023-02-28T12:20:25;5.68;;;2.88;;
68633;SDS011;55625;47.072;22.192;2023-02-28T12:26:19;4.32;;;3.38;;
68633;SDS011;55625;47.072;22.192;2023-02-28T12:29:45;5.22;;;3.03;;
68633;SDS011;55625;47.072;22.192;2023-02-28T12:35:00;6.75;;;2.35;;
68633;SDS011;55625;47.072;22.192;2023-02-28T12:37:35;6.97;;;2.47;;
68633;SDS011;55625;47.072;22.192;2023-02-28T12:40:21;4.75;;;2.08;;
68633;SDS011;55625;47.072;22.192;2023-02-28T12:42:52;2.95;;;1.65;;
68633;SDS011;55625;47.072;22.192;2023-02-28T12:45:40;3.80;;;2.43;;
68633;SDS011;55625;47.072;22.192;2023-02-28T12:48:43;4.38;;;1.52;;
68633;SDS011;55625;47.072;22.192;2023-02-28T12:51:17;10.25;;;2.55;;
68633;SDS011;55625;47.072;22.192;2023-02-28T13:14:20;7.33;;;1.90;;
68633;SDS011;55625;47.072;22.192;2023-02-28T13:17:09;4.22;;;2.97;;
68633;SDS011;55625;47.072;22.192;2023-02-28T13:19:45;6.35;;;4.20;;
68633;SDS011;55625;47.072;22.192;2023-02-28T13:22:19;21.80;;;15.93;;
68633;SDS011;55625;47.072;22.192;2023-02-28T13:28:11;9.67;;;5.87;;
68633;SDS011;55625;47.072;22.192;2023-02-28T13:33:26;5.13;;;3.80;;
68633;SDS011;55625;47.072;22.192;2023-02-28T13:36:12;14.15;;;5.72;;
68633;SDS011;55625;47.072;22.192;2023-02-28T13:38:55;6.45;;;4.45;;
68633;SDS011;55625;47.072;22.192;2023-02-28T13:41:57;4.47;;;1.77;;
68633;SDS011;55625;47.072;22.192;2023-02-28T13:45:28;5.15;;;2.83;;
68633;SDS011;55625;47.072;22.192;2023-02-28T13:48:03;4.00;;;3.15;;
68633;SDS011;55625;47.072;22.192;2023-02-28T13:50:41;4.93;;;3.03;;
68633;SDS011;55625;47.072;22.192;2023-02-28T13:58:54;4.68;;;2.28;;
68633;SDS011;55625;47.072;22.192;2023-02-28T14:04:44;7.78;;;3.00;;
68633;SDS011;55625;47.072;22.192;2023-02-28T14:07:18;6.22;;;3.42;;
68633;SDS011;55625;47.072;22.192;2023-02-28T14:09:57;5.50;;;3.20;;
68633;SDS011;55625;47.072;22.192;2023-02-28T14:18:03;5.40;;;2.25;;
68633;SDS011;55625;47.072;22.192;2023-02-28T14:20:57;5.13;;;2.45;;
68633;SDS011;55625;47.072;22.192;2023-02-28T14:24:01;5.87;;;2.73;;
68633;SDS011;55625;47.072;22.192;2023-02-28T14:39:10;5.57;;;2.33;;
68633;SDS011;55625;47.072;22.192;2023-02-28T14:41:45;4.90;;;3.40;;
68633;SDS011;55625;47.072;22.192;2023-02-28T14:46:55;4.70;;;3.30;;
68633;SDS011;55625;47.072;22.192;2023-02-28T14:49:34;7.32;;;4.93;;
68633;SDS011;55625;47.072;22.192;2023-02-28T14:52:14;4.27;;;2.90;;
68633;SDS011;55625;47.072;22.192;2023-02-28T14:54:58;7.35;;;2.47;;
68633;SDS011;55625;47.072;22.192;2023-02-28T14:57:34;6.07;;;3.00;;
68633;SDS011;55625;47.072;22.192;2023-02-28T15:00:21;7.35;;;3.85;;
68633;SDS011;55625;47.072;22.192;2023-02-28T15:02:47;5.72;;;3.63;;
68633;SDS011;55625;47.072;22.192;2023-02-28T15:07:41;7.97;;;3.88;;
68633;SDS011;55625;47.072;22.192;2023-02-28T15:10:23;8.80;;;4.97;;
68633;SDS011;55625;47.072;22.192;2023-02-28T15:12:56;6.07;;;3.47;;
68633;SDS011;55625;47.072;22.192;2023-02-28T15:15:26;6.20;;;3.55;;
68633;SDS011;55625;47.072;22.192;2023-02-28T15:20:48;8.73;;;4.93;;
68633;SDS011;55625;47.072;22.192;2023-02-28T15:23:15;4.95;;;4.45;;
68633;SDS011;55625;47.072;22.192;2023-02-28T15:25:42;4.18;;;2.47;;
68633;SDS011;55625;47.072;22.192;2023-02-28T15:28:10;7.50;;;4.13;;
68633;SDS011;55625;47.072;22.192;2023-02-28T15:30:51;8.53;;;3.97;;
68633;SDS011;55625;47.072;22.192;2023-02-28T15:33:51;8.77;;;4.57;;
68633;SDS011;55625;47.072;22.192;2023-02-28T15:36:24;18.02;;;4.85;;
68633;SDS011;55625;47.072;22.192;2023-02-28T15:38:53;6.35;;;3.55;;
68633;SDS011;55625;47.072;22.192;2023-02-28T15:47:03;6.53;;;3.58;;
68633;SDS011;55625;47.072;22.192;2023-02-28T15:49:54;6.75;;;3.78;;
68633;SDS011;55625;47.072;22.192;2023-02-28T15:52:34;4.43;;;3.85;;
68633;SDS011;55625;47.072;22.192;2023-02-28T15:55:26;4.50;;;3.42;;
68633;SDS011;55625;47.072;22.192;2023-02-28T15:57:54;5.43;;;2.33;;
68633;SDS011;55625;47.072;22.192;2023-02-28T16:00:25;5.75;;;3.50;;
68633;SDS011;55625;47.072;22.192;2023-02-28T16:02:53;10.38;;;5.78;;
68633;SDS011;55625;47.072;22.192;2023-02-28T16:08:15;9.70;;;4.82;;
68633;SDS011;55625;47.072;22.192;2023-02-28T16:10:41;10.90;;;4.60;;
68633;SDS011;55625;47.072;22.192;2023-02-28T16:13:08;4.72;;;3.20;;
68633;SDS011;55625;47.072;22.192;2023-02-28T16:15:38;10.95;;;6.15;;
68633;SDS011;55625;47.072;22.192;2023-02-28T16:18:11;11.98;;;5.85;;
68633;SDS011;55625;47.072;22.192;2023-02-28T16:20:38;12.03;;;6.03;;
68633;SDS011;55625;47.072;22.192;2023-02-28T16:23:05;11.80;;;5.63;;
68633;SDS011;55625;47.072;22.192;2023-02-28T16:25:38;9.63;;;6.32;;
68633;SDS011;55625;47.072;22.192;2023-02-28T16:28:15;11.00;;;5.45;;
68633;SDS011;55625;47.072;22.192;2023-02-28T16:30:53;7.40;;;4.77;;
68633;SDS011;55625;47.072;22.192;2023-02-28T16:33:19;12.13;;;5.20;;
68633;SDS011;55625;47.072;22.192;2023-02-28T16:35:45;9.05;;;6.70;;
68633;SDS011;55625;47.072;22.192;2023-02-28T16:38:11;9.30;;;3.30;;
68633;SDS011;55625;47.072;22.192;2023-02-28T16:40:37;8.97;;;6.50;;
68633;SDS011;55625;47.072;22.192;2023-02-28T16:43:19;13.30;;;5.17;;
68633;SDS011;55625;47.072;22.192;2023-02-28T16:45:56;7.15;;;3.13;;
68633;SDS011;55625;47.072;22.192;2023-02-28T16:48:23;5.00;;;2.83;;
68633;SDS011;55625;47.072;22.192;2023-02-28T16:50:50;8.45;;;4.60;;
68633;SDS011;55625;47.072;22.192;2023-02-28T16:53:16;8.70;;;5.63;;
68633;SDS011;55625;47.072;22.192;2023-02-28T16:55:42;9.75;;;6.28;;
68633;SDS011;55625;47.072;22.192;2023-02-28T16:58:10;12.60;;;7.90;;
68633;SDS011;55625;47.072;22.192;2023-02-28T17:00:40;24.35;;;11.45;;
68633;SDS011;55625;47.072;22.192;2023-02-28T17:03:22;20.10;;;9.47;;
68633;SDS011;55625;47.072;22.192;2023-02-28T17:05:51;14.68;;;4.75;;
68633;SDS011;55625;47.072;22.192;2023-02-28T17:08:18;7.13;;;5.10;;
68633;SDS011;55625;47.072;22.192;2023-02-28T17:10:44;7.70;;;3.47;;
68633;SDS011;55625;47.072;22.192;2023-02-28T17:13:10;8.70;;;4.18;;
68633;SDS011;55625;47.072;22.192;2023-02-28T17:15:36;7.47;;;4.67;;
68633;SDS011;55625;47.072;22.192;2023-02-28T17:18:04;32.20;;;19.90;;
68633;SDS011;55625;47.072;22.192;2023-02-28T17:20:30;21.67;;;15.15;;
68633;SDS011;55625;47.072;22.192;2023-02-28T17:22:56;11.40;;;5.15;;
68633;SDS011;55625;47.072;22.192;2023-02-28T17:25:23;9.77;;;6.30;;
68633;SDS011;55625;47.072;22.192;2023-02-28T17:27:49;9.10;;;6.17;;
68633;SDS011;55625;47.072;22.192;2023-02-28T17:32:48;13.68;;;6.28;;
68633;SDS011;55625;47.072;22.192;2023-02-28T17:35:14;11.80;;;8.13;;
68633;SDS011;55625;47.072;22.192;2023-02-28T17:37:40;9.35;;;6.88;;
68633;SDS011;55625;47.072;22.192;2023-02-28T17:40:16;23.10;;;7.97;;
68633;SDS011;55625;47.072;22.192;2023-02-28T17:42:47;12.10;;;8.77;;
68633;SDS011;55625;47.072;22.192;2023-02-28T17:45:14;7.65;;;6.07;;
68633;SDS011;55625;47.072;22.192;2023-02-28T17:47:41;15.23;;;7.90;;
68633;SDS011;55625;47.072;22.192;2023-02-28T17:50:14;20.85;;;10.88;;
68633;SDS011;55625;47.072;22.192;2023-02-28T17:52:43;14.23;;;7.20;;
68633;SDS011;55625;47.072;22.192;2023-02-28T17:55:09;16.33;;;10.50;;
68633;SDS011;55625;47.072;22.192;2023-02-28T17:57:36;16.05;;;8.68;;
68633;SDS011;55625;47.072;22.192;2023-02-28T18:00:02;14.80;;;8.77;;